createdAt,value
2022-12-11T00:02:44.323Z,-0.71
2022-12-11T00:05:46.561Z,-0.64
2022-12-11T00:08:52.734Z,-0.75
2022-12-11T00:11:54.330Z,-0.84
2022-12-11T00:14:55.993Z,-0.85
2022-12-11T00:17:57.663Z,-0.88
2022-12-11T00:21:04.388Z,-1.00
2022-12-11T00:24:06.205Z,-0.91
2022-12-11T00:27:08.115Z,-1.01
2022-12-11T00:30:10.343Z,-0.95
2022-12-11T00:33:13.604Z,-0.98
2022-12-11T00:36:21.461Z,-0.99
2022-12-11T00:39:23.130Z,-0.91
2022-12-11T00:42:24.736Z,-0.95
2022-12-11T00:45:26.394Z,-0.96
2022-12-11T00:48:28.147Z,-0.94
2022-12-11T00:51:29.811Z,-0.95
2022-12-11T00:54:31.491Z,-0.88
2022-12-11T00:57:33.121Z,-0.99
2022-12-11T01:00:35.513Z,-0.93
2022-12-11T01:03:37.882Z,-0.97
2022-12-11T01:06:39.575Z,-0.91
2022-12-11T01:10:00.034Z,-0.98
2022-12-11T01:13:05.093Z,-0.88
2022-12-11T01:16:09.906Z,-0.99
2022-12-11T01:19:11.738Z,-1.10
2022-12-11T01:22:13.347Z,-1.15
2022-12-11T01:25:15.012Z,-1.39
2022-12-11T01:28:16.628Z,-1.23
2022-12-11T01:31:19.805Z,-1.18
2022-12-11T01:34:21.811Z,-1.23
2022-12-11T01:37:23.441Z,-1.39
2022-12-11T01:40:25.176Z,-1.33
2022-12-11T01:43:26.835Z,-1.44
2022-12-11T01:46:30.032Z,-1.44
2022-12-11T01:49:31.775Z,-1.58
2022-12-11T01:52:33.698Z,-1.56
2022-12-11T01:55:37.811Z,-1.59
2022-12-11T01:58:45.854Z,-1.53
2022-12-11T02:01:58.902Z,-1.61
2022-12-11T02:05:05.829Z,-1.54
2022-12-11T02:08:08.596Z,-1.68
2022-12-11T02:11:23.816Z,-1.61
2022-12-11T02:14:48.390Z,-1.67
2022-12-11T02:18:11.273Z,-1.67
2022-12-11T02:21:15.840Z,-1.66
2022-12-11T02:24:39.250Z,-1.72
2022-12-11T02:27:40.889Z,-1.73
2022-12-11T02:30:48.014Z,-1.82
2022-12-11T02:34:11.843Z,-1.85
2022-12-11T02:37:19.578Z,-1.97
2022-12-11T02:40:25.081Z,-1.94
2022-12-11T02:43:28.271Z,-1.85
2022-12-11T02:46:32.260Z,-1.86
2022-12-11T02:49:34.209Z,-1.92
2022-12-11T02:52:37.738Z,-1.83
2022-12-11T02:55:41.936Z,-1.82
2022-12-11T02:58:55.308Z,-1.77
2022-12-11T03:02:00.597Z,-1.81
2022-12-11T03:05:02.335Z,-1.78
2022-12-11T03:08:04.459Z,-1.86
2022-12-11T03:11:13.203Z,-1.81
2022-12-11T03:14:15.061Z,-1.87
2022-12-11T03:17:23.786Z,-1.92
2022-12-11T03:20:43.732Z,-1.96
2022-12-11T03:23:57.002Z,-1.95
2022-12-11T03:27:15.813Z,-1.93
2022-12-11T03:30:19.695Z,-1.94
2022-12-11T03:33:36.959Z,-1.91
2022-12-11T03:36:39.529Z,-1.80
2022-12-11T03:39:47.029Z,-1.77
2022-12-11T03:42:51.673Z,-1.88
2022-12-11T03:45:54.518Z,-1.97
2022-12-11T03:49:01.636Z,-1.88
2022-12-11T03:52:05.293Z,-1.86
2022-12-11T03:55:09.055Z,-1.84
2022-12-11T03:58:11.012Z,-1.98
2022-12-11T04:01:12.787Z,-2.03
2022-12-11T04:04:14.533Z,-2.09
2022-12-11T04:07:16.231Z,-2.24
2022-12-11T04:10:17.973Z,-2.22
2022-12-11T04:13:19.621Z,-2.49
2022-12-11T04:16:21.884Z,-2.57
2022-12-11T04:19:43.021Z,-2.57
2022-12-11T04:23:03.273Z,-2.60
2022-12-11T04:26:06.303Z,-2.61
2022-12-11T04:29:08.025Z,-2.58
2022-12-11T04:32:09.640Z,-2.59
2022-12-11T04:35:12.660Z,-2.58
2022-12-11T04:38:14.828Z,-2.55
2022-12-11T04:41:18.013Z,-2.68
2022-12-11T04:44:19.904Z,-2.71
2022-12-11T04:47:21.691Z,-2.67
2022-12-11T04:50:23.522Z,-2.73
2022-12-11T04:53:26.157Z,-2.72
2022-12-11T04:56:27.943Z,-2.67
2022-12-11T04:59:30.269Z,-2.61
2022-12-11T05:02:36.149Z,-2.58
2022-12-11T05:05:37.943Z,-2.55
2022-12-11T05:08:41.384Z,-2.62
2022-12-11T05:11:43.057Z,-2.66
2022-12-11T05:14:44.913Z,-2.61
2022-12-11T05:17:46.621Z,-2.62
2022-12-11T05:20:59.731Z,-2.56
2022-12-11T05:24:01.432Z,-2.54
2022-12-11T05:27:03.102Z,-2.55
2022-12-11T05:30:05.639Z,-2.51
2022-12-11T05:33:07.507Z,-2.55
2022-12-11T05:36:16.011Z,-2.52
2022-12-11T05:39:17.653Z,-2.55
2022-12-11T05:42:22.769Z,-2.52
2022-12-11T05:45:27.052Z,-2.55
2022-12-11T05:48:28.810Z,-2.60
2022-12-11T05:51:31.333Z,-2.60
2022-12-11T05:54:33.351Z,-2.60
2022-12-11T05:57:35.075Z,-2.51
2022-12-11T06:00:36.736Z,-2.49
2022-12-11T06:03:39.068Z,-2.47
2022-12-11T06:06:41.251Z,-2.45
2022-12-11T06:09:43.125Z,-2.39
2022-12-11T06:12:45.042Z,-2.30
2022-12-11T06:15:46.643Z,-2.30
2022-12-11T06:18:48.572Z,-2.28
2022-12-11T06:21:50.463Z,-2.38
2022-12-11T06:24:52.243Z,-2.50
2022-12-11T06:27:54.166Z,-2.54
2022-12-11T06:30:59.448Z,-2.47
2022-12-11T06:34:01.741Z,-2.46
2022-12-11T06:37:03.411Z,-2.58
2022-12-11T06:40:06.337Z,-2.59
2022-12-11T06:43:08.037Z,-2.57
2022-12-11T06:46:15.750Z,-2.50
2022-12-11T06:49:17.418Z,-2.57
2022-12-11T06:52:19.132Z,-2.62
2022-12-11T06:55:20.965Z,-2.54
2022-12-11T06:58:22.656Z,-2.50
2022-12-11T07:01:27.246Z,-2.50
2022-12-11T07:04:30.313Z,-2.57
2022-12-11T07:07:31.993Z,-2.51
2022-12-11T07:10:33.736Z,-2.47
2022-12-11T07:13:35.912Z,-2.56
2022-12-11T07:16:37.629Z,-2.53
2022-12-11T07:19:40.869Z,-2.56
2022-12-11T07:22:46.395Z,-2.45
2022-12-11T07:25:48.370Z,-2.40
2022-12-11T07:28:50.642Z,-2.33
2022-12-11T07:31:52.440Z,-2.37
2022-12-11T07:34:54.242Z,-2.33
2022-12-11T07:37:55.970Z,-2.38
2022-12-11T07:41:05.707Z,-2.51
2022-12-11T07:44:07.767Z,-2.49
2022-12-11T07:47:09.571Z,-2.50
2022-12-11T07:50:11.507Z,-2.58
2022-12-11T07:53:13.193Z,-2.54
2022-12-11T07:56:15.860Z,-2.52
2022-12-11T07:59:17.736Z,-2.51
2022-12-11T08:02:19.431Z,-2.58
2022-12-11T08:05:21.278Z,-2.70
2022-12-11T08:08:23.130Z,-2.68
2022-12-11T08:11:25.903Z,-2.63
2022-12-11T08:14:28.412Z,-2.49
2022-12-11T08:17:33.912Z,-2.48
2022-12-11T08:20:39.293Z,-2.51
2022-12-11T08:23:41.286Z,-2.42
2022-12-11T08:26:42.885Z,-2.47
2022-12-11T08:29:45.769Z,-2.59
2022-12-11T08:32:47.458Z,-2.58
2022-12-11T08:35:49.176Z,-2.62
2022-12-11T08:38:51.771Z,-2.47
2022-12-11T08:41:53.413Z,-2.38
2022-12-11T08:44:55.092Z,-2.27
2022-12-11T08:47:58.677Z,-2.25
2022-12-11T08:51:02.052Z,-2.22
2022-12-11T08:54:03.870Z,-2.15
2022-12-11T08:57:05.723Z,-2.13
2022-12-11T09:00:09.641Z,-1.98
2022-12-11T09:03:15.404Z,-2.01
2022-12-11T09:06:19.149Z,-1.99
2022-12-11T09:09:20.780Z,-1.92
2022-12-11T09:12:23.100Z,-1.98
2022-12-11T09:15:24.848Z,-1.94
2022-12-11T09:18:26.654Z,-1.93
2022-12-11T09:21:30.272Z,-2.09
2022-12-11T09:24:31.944Z,-2.05
2022-12-11T09:27:34.105Z,-1.99
2022-12-11T09:30:35.858Z,-1.84
2022-12-11T09:33:38.088Z,-1.83
2022-12-11T09:36:41.720Z,-1.91
2022-12-11T09:39:43.358Z,-1.85
2022-12-11T09:42:54.381Z,-1.83
2022-12-11T09:45:56.332Z,-1.79
2022-12-11T09:48:58.390Z,-1.71
2022-12-11T09:52:20.551Z,-1.56
2022-12-11T09:55:24.737Z,-1.53
2022-12-11T09:59:05.154Z,-1.54
2022-12-11T10:02:24.169Z,-1.44
2022-12-11T10:05:57.372Z,-1.40
2022-12-11T10:09:30.816Z,-1.37
2022-12-11T10:12:50.607Z,-1.26
2022-12-11T10:16:03.785Z,-1.09
2022-12-11T10:19:05.764Z,-1.20
2022-12-11T10:22:19.019Z,-0.99
2022-12-11T10:25:31.341Z,-0.83
2022-12-11T10:28:33.444Z,-0.71
2022-12-11T10:31:43.584Z,-0.72
2022-12-11T10:34:47.974Z,-0.74
2022-12-11T10:37:50.513Z,-0.78
2022-12-11T10:40:55.838Z,-0.80
2022-12-11T10:43:57.484Z,-0.88
2022-12-11T10:47:10.346Z,-0.92
2022-12-11T10:50:24.411Z,-0.98
2022-12-11T10:53:26.704Z,-1.10
2022-12-11T10:56:30.525Z,-0.98
2022-12-11T10:59:40.596Z,-0.98
2022-12-11T11:02:45.992Z,-0.97
2022-12-11T11:05:49.506Z,-0.98
2022-12-11T11:08:54.323Z,-0.95
2022-12-11T11:11:56.013Z,-1.05
2022-12-11T11:15:05.430Z,-1.08
2022-12-11T11:18:26.648Z,-1.13
2022-12-11T11:21:30.129Z,-1.02
2022-12-11T11:24:42.563Z,-1.00
2022-12-11T11:28:05.677Z,-1.04
2022-12-11T11:31:12.946Z,-1.06
2022-12-11T11:34:21.076Z,-0.97
2022-12-11T11:37:27.284Z,-0.94
2022-12-11T11:40:40.321Z,-0.72
2022-12-11T11:43:49.010Z,-0.69
2022-12-11T11:47:01.018Z,-0.64
2022-12-11T11:50:20.216Z,-0.56
2022-12-11T11:53:37.238Z,-0.50
2022-12-11T11:56:39.358Z,-0.45
2022-12-11T11:59:47.237Z,-0.43
2022-12-11T12:02:54.377Z,-0.30
2022-12-11T12:06:02.599Z,-0.11
2022-12-11T12:09:16.278Z,-0.13
2022-12-11T12:12:34.036Z,-0.07
2022-12-11T12:15:45.309Z,0.01
2022-12-11T12:19:07.321Z,0.15
2022-12-11T12:22:51.443Z,0.23
2022-12-11T12:26:05.215Z,0.29
2022-12-11T12:29:06.852Z,0.25
2022-12-11T12:32:43.030Z,0.12
2022-12-11T12:36:02.070Z,-0.09
2022-12-11T12:39:32.435Z,0.29
2022-12-11T12:43:14.603Z,0.42
2022-12-11T12:46:28.521Z,0.48
2022-12-11T12:49:35.826Z,0.44
2022-12-11T12:52:39.592Z,0.30
2022-12-11T12:55:41.880Z,0.33
2022-12-11T12:58:45.641Z,0.38
2022-12-11T13:01:52.349Z,0.15
2022-12-11T13:04:59.011Z,0.23
2022-12-11T13:08:05.445Z,0.30
2022-12-11T13:11:11.259Z,0.24
2022-12-11T13:14:15.882Z,0.14
2022-12-11T13:17:20.611Z,-0.08
2022-12-11T13:20:25.990Z,-0.07
2022-12-11T13:23:30.878Z,-0.16
2022-12-11T13:26:34.245Z,-0.33
2022-12-11T13:29:40.681Z,-0.45
2022-12-11T13:33:13.982Z,-0.26
2022-12-11T13:36:24.168Z,-0.20
2022-12-11T13:39:29.194Z,-0.36
2022-12-11T13:42:57.220Z,-0.59
2022-12-11T13:46:01.944Z,-0.58
2022-12-11T13:49:17.158Z,-0.58
2022-12-11T13:52:28.648Z,-0.59
2022-12-11T13:55:34.305Z,-0.65
2022-12-11T13:58:38.813Z,-0.78
2022-12-11T14:01:40.572Z,-0.90
2022-12-11T14:04:42.723Z,-0.89
2022-12-11T14:07:49.662Z,-0.85
2022-12-11T14:10:54.048Z,-0.92
2022-12-11T14:13:59.469Z,-1.06
2022-12-11T14:17:01.701Z,-1.06
2022-12-11T14:20:08.114Z,-1.18
2022-12-11T14:23:20.100Z,-1.24
2022-12-11T14:26:27.668Z,-1.24
2022-12-11T14:29:32.845Z,-1.23
2022-12-11T14:32:39.631Z,-1.23
2022-12-11T14:35:43.397Z,-1.15
2022-12-11T14:38:49.470Z,-1.21
2022-12-11T14:42:03.024Z,-1.22
2022-12-11T14:45:19.933Z,-1.43
2022-12-11T14:48:25.822Z,-1.32
2022-12-11T14:51:33.850Z,-1.33
2022-12-11T14:54:42.869Z,-1.38
2022-12-11T14:57:48.348Z,-1.29
2022-12-11T15:01:05.814Z,-1.40
2022-12-11T15:04:23.953Z,-1.33
2022-12-11T15:07:25.624Z,-1.28
2022-12-11T15:10:36.354Z,-1.37
2022-12-11T15:13:54.820Z,-1.45
2022-12-11T15:16:57.669Z,-1.53
2022-12-11T15:20:07.640Z,-1.44
2022-12-11T15:23:11.819Z,-1.39
2022-12-11T15:26:17.665Z,-1.40
2022-12-11T15:29:40.103Z,-1.29
2022-12-11T15:32:41.932Z,-1.23
2022-12-11T15:35:55.407Z,-1.32
2022-12-11T15:38:57.930Z,-1.25
2022-12-11T15:42:07.062Z,-1.36
2022-12-11T15:45:21.817Z,-1.36
2022-12-11T15:48:23.647Z,-1.46
2022-12-11T15:51:27.496Z,-1.32
2022-12-11T15:54:29.197Z,-1.28
2022-12-11T15:57:30.916Z,-1.36
2022-12-11T16:00:32.577Z,-1.48
2022-12-11T16:03:34.192Z,-1.46
2022-12-11T16:06:35.897Z,-1.50
2022-12-11T16:09:37.596Z,-1.56
2022-12-11T16:12:39.892Z,-1.57
2022-12-11T16:15:44.906Z,-1.65
2022-12-11T16:18:46.631Z,-1.60
2022-12-11T16:21:48.753Z,-1.71
2022-12-11T16:24:54.761Z,-1.67
2022-12-11T16:27:57.976Z,-1.52
2022-12-11T16:30:59.613Z,-1.64
2022-12-11T16:34:01.936Z,-1.75
2022-12-11T16:37:04.688Z,-1.77
2022-12-11T16:40:07.163Z,-1.54
2022-12-11T16:43:09.143Z,-1.65
2022-12-11T16:46:15.816Z,-1.66
2022-12-11T16:49:17.885Z,-1.61
2022-12-11T16:52:22.358Z,-1.80
2022-12-11T16:55:24.301Z,-1.76
2022-12-11T16:58:25.991Z,-1.75
2022-12-11T17:01:27.903Z,-1.73
2022-12-11T17:04:29.660Z,-1.65
2022-12-11T17:07:32.748Z,-1.63
2022-12-11T17:10:34.376Z,-1.81
2022-12-11T17:13:36.540Z,-1.63
2022-12-11T17:16:38.186Z,-1.73
2022-12-11T17:19:40.075Z,-1.68
2022-12-11T17:22:42.088Z,-1.58
2022-12-11T17:25:45.576Z,-1.59
2022-12-11T17:28:47.748Z,-1.57
2022-12-11T17:31:49.478Z,-1.62
2022-12-11T17:34:51.181Z,-1.60
2022-12-11T17:37:52.836Z,-1.66
2022-12-11T17:40:55.454Z,-1.73
2022-12-11T17:43:57.126Z,-1.74
2022-12-11T17:46:59.182Z,-1.78
2022-12-11T17:50:00.972Z,-1.72
2022-12-11T17:53:02.583Z,-1.73
2022-12-11T17:56:07.044Z,-1.62
2022-12-11T17:59:08.744Z,-1.76
2022-12-11T18:02:10.759Z,-1.85
2022-12-11T18:05:12.768Z,-1.83
2022-12-11T18:08:18.058Z,-1.76
2022-12-11T18:11:23.653Z,-1.87
2022-12-11T18:14:25.570Z,-1.90
2022-12-11T18:17:27.199Z,-1.90
2022-12-11T18:20:30.460Z,-1.97
2022-12-11T18:23:32.506Z,-1.95
2022-12-11T18:26:34.290Z,-1.98
2022-12-11T18:29:35.970Z,-2.00
2022-12-11T18:32:37.642Z,-1.89
2022-12-11T18:35:40.582Z,-1.95
2022-12-11T18:38:43.162Z,-2.02
2022-12-11T18:41:53.889Z,-1.95
2022-12-11T18:45:06.967Z,-2.05
2022-12-11T18:48:09.614Z,-2.10
2022-12-11T18:51:14.857Z,-2.14
2022-12-11T18:54:16.521Z,-2.08
2022-12-11T18:57:18.624Z,-2.10
2022-12-11T19:00:22.135Z,-2.20
2022-12-11T19:03:24.017Z,-2.16
2022-12-11T19:06:28.717Z,-2.19
2022-12-11T19:09:34.033Z,-2.22
2022-12-11T19:12:39.551Z,-2.23
2022-12-11T19:15:43.156Z,-2.26
2022-12-11T19:18:45.196Z,-2.28
2022-12-11T19:21:48.313Z,-2.24
2022-12-11T19:24:50.271Z,-2.29
2022-12-11T19:27:52.004Z,-2.29
2022-12-11T19:30:53.723Z,-2.29
2022-12-11T19:33:56.180Z,-2.31
2022-12-11T19:36:58.082Z,-2.28
2022-12-11T19:39:59.834Z,-2.29
2022-12-11T19:43:01.547Z,-2.31
2022-12-11T19:46:09.150Z,-2.38
2022-12-11T19:49:11.518Z,-2.37
2022-12-11T19:52:13.487Z,-2.37
2022-12-11T19:55:15.239Z,-2.46
2022-12-11T19:58:16.978Z,-2.42
2022-12-11T20:01:28.904Z,-2.36
2022-12-11T20:04:30.725Z,-2.45
2022-12-11T20:07:32.630Z,-2.37
2022-12-11T20:10:38.363Z,-2.36
2022-12-11T20:13:41.005Z,-2.34
2022-12-11T20:20:04.761Z,-2.26
2022-12-11T20:23:08.013Z,-2.33
2022-12-11T20:26:13.371Z,-2.30
2022-12-11T20:29:15.700Z,-2.27
2022-12-11T20:32:17.478Z,-2.26
2022-12-11T20:35:19.580Z,-2.28
2022-12-11T20:38:22.070Z,-2.38
2022-12-11T20:41:25.423Z,-2.25
2022-12-11T20:44:28.084Z,-2.30
2022-12-11T20:47:29.817Z,-2.27
2022-12-11T20:50:31.461Z,-2.21
2022-12-11T20:53:34.967Z,-2.33
2022-12-11T20:56:37.780Z,-2.29
2022-12-11T20:59:40.131Z,-2.31
2022-12-11T21:02:41.802Z,-2.33
2022-12-11T21:05:45.100Z,-2.33
2022-12-11T21:08:47.011Z,-2.31
2022-12-11T21:11:48.938Z,-2.21
2022-12-11T21:14:50.591Z,-2.25
2022-12-11T21:17:52.348Z,-2.26
2022-12-11T21:20:56.855Z,-2.26
2022-12-11T21:23:59.502Z,-2.29
2022-12-11T21:27:01.315Z,-2.22
2022-12-11T21:30:05.208Z,-2.22
2022-12-11T21:33:07.164Z,-2.36
2022-12-11T21:36:11.252Z,-2.33
2022-12-11T21:39:13.772Z,-2.26
2022-12-11T21:42:15.503Z,-2.28
2022-12-11T21:45:59.737Z,-2.40
2022-12-11T21:48:40.353Z,-2.36
2022-12-11T21:51:46.834Z,-2.51
2022-12-11T21:54:49.284Z,-2.61
2022-12-11T21:57:51.069Z,-2.62
2022-12-11T22:00:52.887Z,-2.67
2022-12-11T22:03:54.827Z,-2.65
2022-12-11T22:06:56.447Z,-2.65
2022-12-11T22:09:58.118Z,-2.60
2022-12-11T22:12:59.744Z,-2.65
2022-12-11T22:16:01.875Z,-2.67
2022-12-11T22:19:03.584Z,-2.83
2022-12-11T22:22:05.313Z,-2.88
2022-12-11T22:25:07.944Z,-2.86
2022-12-11T22:28:09.525Z,-2.94
2022-12-11T22:31:13.271Z,-3.01
2022-12-11T22:34:15.295Z,-3.08
2022-12-11T22:37:16.989Z,-3.13
2022-12-11T22:40:18.760Z,-3.19
2022-12-11T22:43:21.081Z,-3.22
2022-12-11T22:46:27.434Z,-3.34
2022-12-11T22:49:29.144Z,-3.41
2022-12-11T22:52:31.098Z,-3.46
2022-12-11T22:55:32.855Z,-3.52
2022-12-11T22:58:35.174Z,-3.41
2022-12-11T23:01:37.474Z,-3.44
2022-12-11T23:04:39.210Z,-3.49
2022-12-11T23:07:40.869Z,-3.50
2022-12-11T23:10:42.635Z,-3.44
2022-12-11T23:13:44.459Z,-3.40
2022-12-11T23:16:46.542Z,-3.45
2022-12-11T23:19:48.820Z,-3.60
2022-12-11T23:22:50.414Z,-3.71
2022-12-11T23:25:52.111Z,-3.72
2022-12-11T23:28:55.857Z,-3.72
2022-12-11T23:31:57.451Z,-3.86
2022-12-11T23:34:59.165Z,-3.84
2022-12-11T23:38:00.869Z,-3.93
2022-12-11T23:41:04.004Z,-3.79
2022-12-11T23:44:05.662Z,-3.80
2022-12-11T23:47:07.655Z,-3.86
2022-12-11T23:50:09.990Z,-3.90
2022-12-11T23:53:12.240Z,-4.03
2022-12-11T23:56:23.924Z,-4.08
2022-12-11T23:59:25.760Z,-4.14
